sensor_id;sensor_type;location;lat;lon;timestamp;P1;durP1;ratioP1;P2;durP2;ratioP2
4794;SDS011;2411;47.060;15.064;2022-12-07T00:01:30;14.60;;;8.13;;
4794;SDS011;2411;47.060;15.064;2022-12-07T00:03:59;21.43;;;6.50;;
4794;SDS011;2411;47.060;15.064;2022-12-07T00:06:38;5.70;;;5.00;;
4794;SDS011;2411;47.060;15.064;2022-12-07T00:09:11;5.90;;;3.90;;
4794;SDS011;2411;47.060;15.064;2022-12-07T00:11:41;4.10;;;3.70;;
4794;SDS011;2411;47.060;15.064;2022-12-07T00:14:12;2.17;;;2.07;;
4794;SDS011;2411;47.060;15.064;2022-12-07T00:16:41;3.73;;;3.43;;
4794;SDS011;2411;47.060;15.064;2022-12-07T00:19:10;2.27;;;2.10;;
4794;SDS011;2411;47.060;15.064;2022-12-07T00:21:39;1.43;;;1.43;;
4794;SDS011;2411;47.060;15.064;2022-12-07T00:24:07;2.27;;;1.53;;
4794;SDS011;2411;47.060;15.064;2022-12-07T00:26:37;1.70;;;1.50;;
4794;SDS011;2411;47.060;15.064;2022-12-07T00:29:06;3.60;;;2.97;;
4794;SDS011;2411;47.060;15.064;2022-12-07T00:31:52;2.67;;;2.47;;
4794;SDS011;2411;47.060;15.064;2022-12-07T00:34:20;3.20;;;2.57;;
4794;SDS011;2411;47.060;15.064;2022-12-07T00:36:48;2.57;;;2.27;;
4794;SDS011;2411;47.060;15.064;2022-12-07T00:39:15;6.87;;;2.53;;
4794;SDS011;2411;47.060;15.064;2022-12-07T00:41:43;4.67;;;2.77;;
4794;SDS011;2411;47.060;15.064;2022-12-07T00:44:10;2.97;;;2.67;;
4794;SDS011;2411;47.060;15.064;2022-12-07T00:46:38;3.10;;;2.20;;
4794;SDS011;2411;47.060;15.064;2022-12-07T00:49:05;1.73;;;1.63;;
4794;SDS011;2411;47.060;15.064;2022-12-07T00:51:33;2.60;;;2.50;;
4794;SDS011;2411;47.060;15.064;2022-12-07T00:54:00;2.30;;;1.90;;
4794;SDS011;2411;47.060;15.064;2022-12-07T00:56:27;3.20;;;2.20;;
4794;SDS011;2411;47.060;15.064;2022-12-07T00:58:59;3.00;;;2.50;;
4794;SDS011;2411;47.060;15.064;2022-12-07T01:01:30;1.97;;;1.50;;
4794;SDS011;2411;47.060;15.064;2022-12-07T01:04:02;2.20;;;1.87;;
4794;SDS011;2411;47.060;15.064;2022-12-07T01:06:30;3.33;;;2.10;;
4794;SDS011;2411;47.060;15.064;2022-12-07T01:08:57;2.47;;;2.17;;
4794;SDS011;2411;47.060;15.064;2022-12-07T01:11:27;1.70;;;1.60;;
4794;SDS011;2411;47.060;15.064;2022-12-07T01:13:56;1.67;;;1.57;;
4794;SDS011;2411;47.060;15.064;2022-12-07T01:16:25;1.30;;;1.30;;
4794;SDS011;2411;47.060;15.064;2022-12-07T01:18:54;1.00;;;1.00;;
4794;SDS011;2411;47.060;15.064;2022-12-07T01:21:24;1.43;;;1.10;;
4794;SDS011;2411;47.060;15.064;2022-12-07T01:23:54;1.13;;;0.87;;
4794;SDS011;2411;47.060;15.064;2022-12-07T01:26:22;0.93;;;0.93;;
4794;SDS011;2411;47.060;15.064;2022-12-07T01:28:50;1.20;;;1.10;;
4794;SDS011;2411;47.060;15.064;2022-12-07T01:31:20;2.67;;;1.70;;
4794;SDS011;2411;47.060;15.064;2022-12-07T01:33:50;1.63;;;1.53;;
4794;SDS011;2411;47.060;15.064;2022-12-07T01:38:49;1.00;;;1.00;;
4794;SDS011;2411;47.060;15.064;2022-12-07T01:41:19;0.80;;;0.80;;
4794;SDS011;2411;47.060;15.064;2022-12-07T01:46:54;2.73;;;1.10;;
4794;SDS011;2411;47.060;15.064;2022-12-07T01:52:13;1.03;;;1.03;;
4794;SDS011;2411;47.060;15.064;2022-12-07T01:54:42;1.13;;;1.10;;
4794;SDS011;2411;47.060;15.064;2022-12-07T01:57:11;3.07;;;1.87;;
4794;SDS011;2411;47.060;15.064;2022-12-07T01:59:40;1.50;;;1.40;;
4794;SDS011;2411;47.060;15.064;2022-12-07T02:02:12;1.13;;;0.80;;
4794;SDS011;2411;47.060;15.064;2022-12-07T02:04:46;1.03;;;0.93;;
4794;SDS011;2411;47.060;15.064;2022-12-07T02:07:13;0.67;;;0.67;;
4794;SDS011;2411;47.060;15.064;2022-12-07T02:09:41;0.70;;;0.70;;
4794;SDS011;2411;47.060;15.064;2022-12-07T02:12:08;1.13;;;0.77;;
4794;SDS011;2411;47.060;15.064;2022-12-07T02:14:35;0.70;;;0.70;;
4794;SDS011;2411;47.060;15.064;2022-12-07T02:20:21;0.50;;;0.50;;
4794;SDS011;2411;47.060;15.064;2022-12-07T02:23:03;0.50;;;0.50;;
4794;SDS011;2411;47.060;15.064;2022-12-07T02:31:48;0.60;;;0.60;;
4794;SDS011;2411;47.060;15.064;2022-12-07T02:34:31;0.50;;;0.50;;
4794;SDS011;2411;47.060;15.064;2022-12-07T02:37:09;0.50;;;0.50;;
4794;SDS011;2411;47.060;15.064;2022-12-07T02:39:47;0.50;;;0.50;;
4794;SDS011;2411;47.060;15.064;2022-12-07T02:42:23;0.70;;;0.70;;
4794;SDS011;2411;47.060;15.064;2022-12-07T02:44:58;1.13;;;0.93;;
4794;SDS011;2411;47.060;15.064;2022-12-07T02:47:27;0.90;;;0.90;;
4794;SDS011;2411;47.060;15.064;2022-12-07T02:49:56;0.80;;;0.80;;
4794;SDS011;2411;47.060;15.064;2022-12-07T02:52:23;0.70;;;0.70;;
4794;SDS011;2411;47.060;15.064;2022-12-07T02:54:50;2.00;;;1.60;;
4794;SDS011;2411;47.060;15.064;2022-12-07T03:00:20;1.20;;;1.10;;
4794;SDS011;2411;47.060;15.064;2022-12-07T03:08:42;0.57;;;0.57;;
4794;SDS011;2411;47.060;15.064;2022-12-07T03:11:24;0.53;;;0.53;;
4794;SDS011;2411;47.060;15.064;2022-12-07T03:14:03;2.83;;;0.80;;
4794;SDS011;2411;47.060;15.064;2022-12-07T03:16:39;0.70;;;0.70;;
4794;SDS011;2411;47.060;15.064;2022-12-07T03:19:15;0.50;;;0.50;;
4794;SDS011;2411;47.060;15.064;2022-12-07T03:21:53;0.40;;;0.40;;
4794;SDS011;2411;47.060;15.064;2022-12-07T03:24:24;0.30;;;0.30;;
4794;SDS011;2411;47.060;15.064;2022-12-07T03:27:05;0.70;;;0.60;;
4794;SDS011;2411;47.060;15.064;2022-12-07T03:29:40;0.60;;;0.60;;
4794;SDS011;2411;47.060;15.064;2022-12-07T03:32:17;0.87;;;0.87;;
4794;SDS011;2411;47.060;15.064;2022-12-07T03:34:59;1.53;;;0.87;;
4794;SDS011;2411;47.060;15.064;2022-12-07T03:37:33;2.20;;;1.10;;
4794;SDS011;2411;47.060;15.064;2022-12-07T03:42:37;0.80;;;0.80;;
4794;SDS011;2411;47.060;15.064;2022-12-07T03:45:04;0.60;;;0.60;;
4794;SDS011;2411;47.060;15.064;2022-12-07T03:47:47;0.57;;;0.57;;
4794;SDS011;2411;47.060;15.064;2022-12-07T03:50:25;0.60;;;0.60;;
4794;SDS011;2411;47.060;15.064;2022-12-07T03:53:04;0.60;;;0.60;;
4794;SDS011;2411;47.060;15.064;2022-12-07T03:55:39;0.50;;;0.50;;
4794;SDS011;2411;47.060;15.064;2022-12-07T03:58:12;0.60;;;0.60;;
4794;SDS011;2411;47.060;15.064;2022-12-07T04:00:47;2.30;;;0.70;;
4794;SDS011;2411;47.060;15.064;2022-12-07T04:03:15;0.70;;;0.70;;
4794;SDS011;2411;47.060;15.064;2022-12-07T04:05:43;0.50;;;0.50;;
4794;SDS011;2411;47.060;15.064;2022-12-07T04:08:11;0.50;;;0.50;;
4794;SDS011;2411;47.060;15.064;2022-12-07T04:10:38;0.50;;;0.50;;
4794;SDS011;2411;47.060;15.064;2022-12-07T04:13:05;0.53;;;0.53;;
4794;SDS011;2411;47.060;15.064;2022-12-07T04:15:33;0.50;;;0.50;;
4794;SDS011;2411;47.060;15.064;2022-12-07T04:18:00;0.80;;;0.80;;
4794;SDS011;2411;47.060;15.064;2022-12-07T04:20:27;0.80;;;0.70;;
4794;SDS011;2411;47.060;15.064;2022-12-07T04:22:54;0.60;;;0.60;;
4794;SDS011;2411;47.060;15.064;2022-12-07T04:25:22;0.90;;;0.90;;
4794;SDS011;2411;47.060;15.064;2022-12-07T04:27:49;0.87;;;0.87;;
4794;SDS011;2411;47.060;15.064;2022-12-07T04:30:16;0.60;;;0.60;;
4794;SDS011;2411;47.060;15.064;2022-12-07T04:32:43;0.80;;;0.80;;
4794;SDS011;2411;47.060;15.064;2022-12-07T04:35:11;1.13;;;0.97;;
4794;SDS011;2411;47.060;15.064;2022-12-07T04:37:38;0.50;;;0.50;;
4794;SDS011;2411;47.060;15.064;2022-12-07T04:40:07;2.33;;;0.60;;
4794;SDS011;2411;47.060;15.064;2022-12-07T04:42:37;0.60;;;0.60;;
4794;SDS011;2411;47.060;15.064;2022-12-07T04:45:05;0.50;;;0.50;;
4794;SDS011;2411;47.060;15.064;2022-12-07T04:47:33;2.13;;;0.60;;
4794;SDS011;2411;47.060;15.064;2022-12-07T04:50:00;0.60;;;0.60;;
4794;SDS011;2411;47.060;15.064;2022-12-07T04:52:28;0.60;;;0.60;;
4794;SDS011;2411;47.060;15.064;2022-12-07T04:54:55;0.93;;;0.93;;
4794;SDS011;2411;47.060;15.064;2022-12-07T04:57:22;0.77;;;0.77;;
4794;SDS011;2411;47.060;15.064;2022-12-07T04:59:50;0.60;;;0.60;;
4794;SDS011;2411;47.060;15.064;2022-12-07T05:02:17;0.97;;;0.90;;
4794;SDS011;2411;47.060;15.064;2022-12-07T05:04:44;0.80;;;0.80;;
4794;SDS011;2411;47.060;15.064;2022-12-07T05:07:12;0.70;;;0.70;;
4794;SDS011;2411;47.060;15.064;2022-12-07T05:09:39;0.53;;;0.53;;
4794;SDS011;2411;47.060;15.064;2022-12-07T05:12:06;0.60;;;0.60;;
4794;SDS011;2411;47.060;15.064;2022-12-07T05:14:33;0.50;;;0.50;;
4794;SDS011;2411;47.060;15.064;2022-12-07T05:17:01;0.50;;;0.50;;
4794;SDS011;2411;47.060;15.064;2022-12-07T05:19:28;0.70;;;0.70;;
4794;SDS011;2411;47.060;15.064;2022-12-07T05:21:55;0.80;;;0.50;;
4794;SDS011;2411;47.060;15.064;2022-12-07T05:24:22;0.60;;;0.60;;
4794;SDS011;2411;47.060;15.064;2022-12-07T05:26:50;0.83;;;0.70;;
4794;SDS011;2411;47.060;15.064;2022-12-07T05:29:17;0.50;;;0.50;;
4794;SDS011;2411;47.060;15.064;2022-12-07T05:31:44;0.80;;;0.73;;
4794;SDS011;2411;47.060;15.064;2022-12-07T05:34:12;0.80;;;0.80;;
4794;SDS011;2411;47.060;15.064;2022-12-07T05:36:39;0.70;;;0.70;;
4794;SDS011;2411;47.060;15.064;2022-12-07T05:39:07;0.50;;;0.50;;
4794;SDS011;2411;47.060;15.064;2022-12-07T05:41:34;0.60;;;0.60;;
4794;SDS011;2411;47.060;15.064;2022-12-07T05:44:19;0.63;;;0.63;;
4794;SDS011;2411;47.060;15.064;2022-12-07T05:46:47;0.50;;;0.50;;
4794;SDS011;2411;47.060;15.064;2022-12-07T05:49:14;0.40;;;0.40;;
4794;SDS011;2411;47.060;15.064;2022-12-07T05:51:41;0.60;;;0.60;;
4794;SDS011;2411;47.060;15.064;2022-12-07T05:54:09;0.50;;;0.50;;
4794;SDS011;2411;47.060;15.064;2022-12-07T05:56:36;0.60;;;0.60;;
4794;SDS011;2411;47.060;15.064;2022-12-07T05:59:03;0.60;;;0.60;;
4794;SDS011;2411;47.060;15.064;2022-12-07T06:04:17;0.60;;;0.60;;
4794;SDS011;2411;47.060;15.064;2022-12-07T06:06:45;0.50;;;0.50;;
4794;SDS011;2411;47.060;15.064;2022-12-07T06:09:12;1.07;;;1.07;;
4794;SDS011;2411;47.060;15.064;2022-12-07T06:11:40;0.60;;;0.60;;
4794;SDS011;2411;47.060;15.064;2022-12-07T06:14:26;2.50;;;1.80;;
4794;SDS011;2411;47.060;15.064;2022-12-07T06:16:54;3.77;;;2.40;;
4794;SDS011;2411;47.060;15.064;2022-12-07T06:19:21;3.43;;;2.73;;
4794;SDS011;2411;47.060;15.064;2022-12-07T06:21:48;2.07;;;1.87;;
4794;SDS011;2411;47.060;15.064;2022-12-07T06:24:16;4.70;;;2.10;;
4794;SDS011;2411;47.060;15.064;2022-12-07T06:26:44;3.20;;;2.47;;
4794;SDS011;2411;47.060;15.064;2022-12-07T06:29:12;2.20;;;2.00;;
4794;SDS011;2411;47.060;15.064;2022-12-07T06:31:39;4.10;;;2.40;;
4794;SDS011;2411;47.060;15.064;2022-12-07T06:34:12;1.20;;;1.10;;
4794;SDS011;2411;47.060;15.064;2022-12-07T06:36:42;0.60;;;0.60;;
4794;SDS011;2411;47.060;15.064;2022-12-07T06:39:09;0.70;;;0.70;;
4794;SDS011;2411;47.060;15.064;2022-12-07T06:41:37;1.23;;;1.13;;
4794;SDS011;2411;47.060;15.064;2022-12-07T06:44:05;1.47;;;1.37;;
4794;SDS011;2411;47.060;15.064;2022-12-07T06:46:33;2.90;;;2.00;;
4794;SDS011;2411;47.060;15.064;2022-12-07T06:49:03;2.70;;;1.97;;
4794;SDS011;2411;47.060;15.064;2022-12-07T06:51:31;3.00;;;2.63;;
4794;SDS011;2411;47.060;15.064;2022-12-07T06:53:59;2.03;;;1.83;;
4794;SDS011;2411;47.060;15.064;2022-12-07T06:56:26;2.30;;;2.10;;
4794;SDS011;2411;47.060;15.064;2022-12-07T06:58:53;1.93;;;1.60;;
4794;SDS011;2411;47.060;15.064;2022-12-07T07:01:21;2.90;;;2.43;;
4794;SDS011;2411;47.060;15.064;2022-12-07T07:03:48;3.23;;;2.33;;
4794;SDS011;2411;47.060;15.064;2022-12-07T07:06:15;2.10;;;1.93;;
4794;SDS011;2411;47.060;15.064;2022-12-07T07:08:43;3.23;;;2.57;;
4794;SDS011;2411;47.060;15.064;2022-12-07T07:11:10;6.60;;;2.60;;
4794;SDS011;2411;47.060;15.064;2022-12-07T07:13:37;6.30;;;3.20;;
4794;SDS011;2411;47.060;15.064;2022-12-07T07:16:05;3.43;;;3.07;;
4794;SDS011;2411;47.060;15.064;2022-12-07T07:18:33;2.97;;;2.60;;
4794;SDS011;2411;47.060;15.064;2022-12-07T07:21:01;4.03;;;3.17;;
4794;SDS011;2411;47.060;15.064;2022-12-07T07:23:28;4.60;;;2.60;;
4794;SDS011;2411;47.060;15.064;2022-12-07T07:25:56;2.40;;;2.00;;
4794;SDS011;2411;47.060;15.064;2022-12-07T07:28:23;2.40;;;2.20;;
4794;SDS011;2411;47.060;15.064;2022-12-07T07:30:50;1.97;;;1.80;;
4794;SDS011;2411;47.060;15.064;2022-12-07T07:33:18;3.13;;;2.83;;
4794;SDS011;2411;47.060;15.064;2022-12-07T07:35:45;2.50;;;2.30;;
4794;SDS011;2411;47.060;15.064;2022-12-07T07:38:12;2.43;;;2.23;;
4794;SDS011;2411;47.060;15.064;2022-12-07T07:40:40;2.60;;;2.40;;
4794;SDS011;2411;47.060;15.064;2022-12-07T07:43:07;2.30;;;2.07;;
4794;SDS011;2411;47.060;15.064;2022-12-07T07:45:34;4.47;;;2.33;;
4794;SDS011;2411;47.060;15.064;2022-12-07T07:48:01;2.47;;;2.20;;
4794;SDS011;2411;47.060;15.064;2022-12-07T07:50:29;3.00;;;2.80;;
4794;SDS011;2411;47.060;15.064;2022-12-07T07:52:56;5.83;;;3.20;;
4794;SDS011;2411;47.060;15.064;2022-12-07T07:55:24;4.43;;;3.17;;
4794;SDS011;2411;47.060;15.064;2022-12-07T07:57:51;3.50;;;3.20;;
4794;SDS011;2411;47.060;15.064;2022-12-07T08:00:20;2.40;;;2.20;;
4794;SDS011;2411;47.060;15.064;2022-12-07T08:02:48;3.37;;;3.07;;
4794;SDS011;2411;47.060;15.064;2022-12-07T08:05:16;3.00;;;2.80;;
4794;SDS011;2411;47.060;15.064;2022-12-07T08:07:43;3.20;;;2.80;;
4794;SDS011;2411;47.060;15.064;2022-12-07T08:10:11;5.20;;;2.63;;
4794;SDS011;2411;47.060;15.064;2022-12-07T08:12:40;2.60;;;2.40;;
4794;SDS011;2411;47.060;15.064;2022-12-07T08:15:27;4.70;;;3.53;;
4794;SDS011;2411;47.060;15.064;2022-12-07T08:17:55;13.43;;;7.60;;
4794;SDS011;2411;47.060;15.064;2022-12-07T08:20:23;12.30;;;9.07;;
4794;SDS011;2411;47.060;15.064;2022-12-07T08:22:50;16.37;;;11.67;;
4794;SDS011;2411;47.060;15.064;2022-12-07T08:25:17;24.43;;;16.43;;
4794;SDS011;2411;47.060;15.064;2022-12-07T08:27:45;22.77;;;14.50;;
4794;SDS011;2411;47.060;15.064;2022-12-07T08:30:12;16.50;;;11.23;;
4794;SDS011;2411;47.060;15.064;2022-12-07T08:32:40;18.57;;;9.67;;
4794;SDS011;2411;47.060;15.064;2022-12-07T08:35:07;9.20;;;6.63;;
4794;SDS011;2411;47.060;15.064;2022-12-07T08:37:35;6.83;;;6.13;;
4794;SDS011;2411;47.060;15.064;2022-12-07T08:40:03;8.17;;;6.40;;
4794;SDS011;2411;47.060;15.064;2022-12-07T08:42:32;6.50;;;5.60;;
4794;SDS011;2411;47.060;15.064;2022-12-07T08:45:10;6.67;;;4.80;;
4794;SDS011;2411;47.060;15.064;2022-12-07T08:47:40;5.07;;;4.13;;
4794;SDS011;2411;47.060;15.064;2022-12-07T08:50:12;8.03;;;4.10;;
4794;SDS011;2411;47.060;15.064;2022-12-07T08:52:39;6.60;;;4.93;;
4794;SDS011;2411;47.060;15.064;2022-12-07T08:55:09;5.73;;;4.20;;
4794;SDS011;2411;47.060;15.064;2022-12-07T08:57:37;5.20;;;4.80;;
4794;SDS011;2411;47.060;15.064;2022-12-07T09:00:06;6.17;;;4.20;;
4794;SDS011;2411;47.060;15.064;2022-12-07T09:02:34;5.10;;;4.67;;
4794;SDS011;2411;47.060;15.064;2022-12-07T09:05:02;5.60;;;5.10;;
4794;SDS011;2411;47.060;15.064;2022-12-07T09:07:30;6.63;;;5.37;;
4794;SDS011;2411;47.060;15.064;2022-12-07T09:09:59;5.20;;;4.53;;
4794;SDS011;2411;47.060;15.064;2022-12-07T09:12:27;4.47;;;4.10;;
4794;SDS011;2411;47.060;15.064;2022-12-07T09:14:55;8.27;;;4.90;;
4794;SDS011;2411;47.060;15.064;2022-12-07T09:17:22;4.57;;;4.17;;
4794;SDS011;2411;47.060;15.064;2022-12-07T09:19:50;6.00;;;4.40;;
4794;SDS011;2411;47.060;15.064;2022-12-07T09:22:17;6.10;;;4.30;;
4794;SDS011;2411;47.060;15.064;2022-12-07T09:24:45;7.40;;;4.43;;
4794;SDS011;2411;47.060;15.064;2022-12-07T09:27:13;4.37;;;3.97;;
4794;SDS011;2411;47.060;15.064;2022-12-07T09:29:40;4.50;;;4.10;;
4794;SDS011;2411;47.060;15.064;2022-12-07T09:32:07;4.40;;;4.10;;
4794;SDS011;2411;47.060;15.064;2022-12-07T09:34:37;4.60;;;4.03;;
4794;SDS011;2411;47.060;15.064;2022-12-07T09:37:05;4.10;;;3.70;;
4794;SDS011;2411;47.060;15.064;2022-12-07T09:39:32;5.07;;;4.50;;
4794;SDS011;2411;47.060;15.064;2022-12-07T09:42:02;10.83;;;5.00;;
4794;SDS011;2411;47.060;15.064;2022-12-07T09:44:31;6.50;;;5.77;;
4794;SDS011;2411;47.060;15.064;2022-12-07T09:46:59;7.20;;;5.87;;
4794;SDS011;2411;47.060;15.064;2022-12-07T09:49:28;7.83;;;5.80;;
4794;SDS011;2411;47.060;15.064;2022-12-07T09:54:45;6.30;;;5.40;;
4794;SDS011;2411;47.060;15.064;2022-12-07T09:57:15;6.20;;;5.60;;
4794;SDS011;2411;47.060;15.064;2022-12-07T09:59:43;7.77;;;6.00;;
4794;SDS011;2411;47.060;15.064;2022-12-07T10:04:57;6.97;;;6.27;;
4794;SDS011;2411;47.060;15.064;2022-12-07T10:07:26;7.80;;;4.90;;
4794;SDS011;2411;47.060;15.064;2022-12-07T10:09:53;5.53;;;5.00;;
4794;SDS011;2411;47.060;15.064;2022-12-07T10:12:20;5.67;;;4.43;;
4794;SDS011;2411;47.060;15.064;2022-12-07T10:15:12;4.07;;;3.73;;
4794;SDS011;2411;47.060;15.064;2022-12-07T10:17:36;4.53;;;4.13;;
4794;SDS011;2411;47.060;15.064;2022-12-07T10:20:08;6.43;;;4.60;;
4794;SDS011;2411;47.060;15.064;2022-12-07T10:22:55;5.30;;;4.30;;
4794;SDS011;2411;47.060;15.064;2022-12-07T10:25:42;4.33;;;3.93;;
4794;SDS011;2411;47.060;15.064;2022-12-07T10:28:13;4.20;;;3.90;;
4794;SDS011;2411;47.060;15.064;2022-12-07T10:33:36;4.33;;;3.93;;
4794;SDS011;2411;47.060;15.064;2022-12-07T10:36:25;3.80;;;3.50;;
4794;SDS011;2411;47.060;15.064;2022-12-07T10:41:27;4.47;;;4.00;;
4794;SDS011;2411;47.060;15.064;2022-12-07T10:43:55;3.60;;;3.30;;
4794;SDS011;2411;47.060;15.064;2022-12-07T11:12:32;1.60;;;1.60;;
4794;SDS011;2411;47.060;15.064;2022-12-07T11:26:13;2.60;;;2.50;;
4794;SDS011;2411;47.060;15.064;2022-12-07T11:29:07;2.97;;;2.13;;
4794;SDS011;2411;47.060;15.064;2022-12-07T11:34:35;15.13;;;2.40;;
4794;SDS011;2411;47.060;15.064;2022-12-07T11:37:21;2.67;;;2.47;;
4794;SDS011;2411;47.060;15.064;2022-12-07T11:40:03;2.03;;;1.93;;
4794;SDS011;2411;47.060;15.064;2022-12-07T11:42:53;1.50;;;1.50;;
4794;SDS011;2411;47.060;15.064;2022-12-07T11:45:32;2.10;;;2.00;;
4794;SDS011;2411;47.060;15.064;2022-12-07T11:48:02;1.83;;;1.73;;
4794;SDS011;2411;47.060;15.064;2022-12-07T11:50:38;2.07;;;1.97;;
4794;SDS011;2411;47.060;15.064;2022-12-07T11:53:20;1.93;;;1.70;;
4794;SDS011;2411;47.060;15.064;2022-12-07T11:55:57;2.30;;;2.10;;
4794;SDS011;2411;47.060;15.064;2022-12-07T12:01:08;1.93;;;1.83;;
4794;SDS011;2411;47.060;15.064;2022-12-07T12:03:52;1.67;;;1.60;;
4794;SDS011;2411;47.060;15.064;2022-12-07T12:06:24;1.57;;;1.47;;
4794;SDS011;2411;47.060;15.064;2022-12-07T12:08:56;2.00;;;1.83;;
4794;SDS011;2411;47.060;15.064;2022-12-07T12:15:29;3.60;;;2.60;;
4794;SDS011;2411;47.060;15.064;2022-12-07T12:20:55;3.17;;;2.83;;
4794;SDS011;2411;47.060;15.064;2022-12-07T12:26:08;2.40;;;2.30;;
4794;SDS011;2411;47.060;15.064;2022-12-07T12:28:50;4.30;;;2.60;;
4794;SDS011;2411;47.060;15.064;2022-12-07T12:31:39;2.43;;;2.23;;
4794;SDS011;2411;47.060;15.064;2022-12-07T12:42:45;2.90;;;2.53;;
4794;SDS011;2411;47.060;15.064;2022-12-07T12:45:26;3.23;;;2.63;;
4794;SDS011;2411;47.060;15.064;2022-12-07T12:48:26;2.47;;;2.27;;
4794;SDS011;2411;47.060;15.064;2022-12-07T12:54:04;3.00;;;2.70;;
4794;SDS011;2411;47.060;15.064;2022-12-07T12:56:42;2.40;;;2.30;;
4794;SDS011;2411;47.060;15.064;2022-12-07T12:59:58;5.13;;;2.93;;
4794;SDS011;2411;47.060;15.064;2022-12-07T13:12:57;3.60;;;2.60;;
4794;SDS011;2411;47.060;15.064;2022-12-07T13:20:55;4.90;;;3.80;;
4794;SDS011;2411;47.060;15.064;2022-12-07T13:29:06;4.50;;;4.10;;
4794;SDS011;2411;47.060;15.064;2022-12-07T13:31:38;4.53;;;4.13;;
4794;SDS011;2411;47.060;15.064;2022-12-07T13:37:01;5.67;;;4.40;;
4794;SDS011;2411;47.060;15.064;2022-12-07T13:39:35;5.67;;;4.20;;
4794;SDS011;2411;47.060;15.064;2022-12-07T13:44:46;3.60;;;3.30;;
4794;SDS011;2411;47.060;15.064;2022-12-07T13:47:30;5.57;;;3.07;;
4794;SDS011;2411;47.060;15.064;2022-12-07T13:50:21;4.57;;;2.93;;
4794;SDS011;2411;47.060;15.064;2022-12-07T13:52:57;3.80;;;2.93;;
4794;SDS011;2411;47.060;15.064;2022-12-07T13:55:26;3.47;;;2.87;;
4794;SDS011;2411;47.060;15.064;2022-12-07T13:57:55;3.40;;;2.77;;
4794;SDS011;2411;47.060;15.064;2022-12-07T14:00:24;3.17;;;2.77;;
4794;SDS011;2411;47.060;15.064;2022-12-07T14:02:57;3.63;;;2.93;;
4794;SDS011;2411;47.060;15.064;2022-12-07T14:05:27;3.50;;;2.80;;
4794;SDS011;2411;47.060;15.064;2022-12-07T14:10:34;2.80;;;2.60;;
4794;SDS011;2411;47.060;15.064;2022-12-07T14:13:04;2.87;;;2.60;;
4794;SDS011;2411;47.060;15.064;2022-12-07T14:15:55;3.30;;;3.00;;
4794;SDS011;2411;47.060;15.064;2022-12-07T14:18:45;3.20;;;2.97;;
4794;SDS011;2411;47.060;15.064;2022-12-07T14:23:40;3.20;;;2.93;;
4794;SDS011;2411;47.060;15.064;2022-12-07T14:26:11;5.00;;;2.97;;
4794;SDS011;2411;47.060;15.064;2022-12-07T14:28:46;3.50;;;3.20;;
4794;SDS011;2411;47.060;15.064;2022-12-07T14:31:15;9.37;;;3.10;;
4794;SDS011;2411;47.060;15.064;2022-12-07T14:33:58;3.20;;;3.00;;
4794;SDS011;2411;47.060;15.064;2022-12-07T14:36:26;2.40;;;2.30;;
4794;SDS011;2411;47.060;15.064;2022-12-07T14:38:53;2.70;;;2.50;;
4794;SDS011;2411;47.060;15.064;2022-12-07T14:41:22;3.00;;;2.77;;
4794;SDS011;2411;47.060;15.064;2022-12-07T14:44:10;2.60;;;2.40;;
4794;SDS011;2411;47.060;15.064;2022-12-07T14:46:58;3.93;;;2.73;;
4794;SDS011;2411;47.060;15.064;2022-12-07T14:49:46;3.10;;;2.90;;
4794;SDS011;2411;47.060;15.064;2022-12-07T14:52:14;2.57;;;2.37;;
4794;SDS011;2411;47.060;15.064;2022-12-07T14:55:12;2.47;;;2.27;;
4794;SDS011;2411;47.060;15.064;2022-12-07T14:57:41;4.47;;;2.53;;
4794;SDS011;2411;47.060;15.064;2022-12-07T15:00:09;2.70;;;2.60;;
4794;SDS011;2411;47.060;15.064;2022-12-07T15:02:40;3.47;;;3.17;;
4794;SDS011;2411;47.060;15.064;2022-12-07T15:05:07;2.57;;;2.47;;
4794;SDS011;2411;47.060;15.064;2022-12-07T15:07:41;6.27;;;2.63;;
4794;SDS011;2411;47.060;15.064;2022-12-07T15:10:20;3.00;;;2.70;;
4794;SDS011;2411;47.060;15.064;2022-12-07T15:12:50;2.87;;;2.67;;
4794;SDS011;2411;47.060;15.064;2022-12-07T15:15:17;2.47;;;2.27;;
4794;SDS011;2411;47.060;15.064;2022-12-07T15:17:45;5.17;;;3.10;;
4794;SDS011;2411;47.060;15.064;2022-12-07T15:20:13;2.90;;;2.60;;
4794;SDS011;2411;47.060;15.064;2022-12-07T15:22:43;2.83;;;2.63;;
4794;SDS011;2411;47.060;15.064;2022-12-07T15:25:13;2.80;;;2.60;;
4794;SDS011;2411;47.060;15.064;2022-12-07T15:27:41;3.90;;;2.10;;
4794;SDS011;2411;47.060;15.064;2022-12-07T15:30:08;2.63;;;2.43;;
4794;SDS011;2411;47.060;15.064;2022-12-07T15:32:36;2.10;;;2.00;;
4794;SDS011;2411;47.060;15.064;2022-12-07T15:35:03;2.20;;;2.03;;
4794;SDS011;2411;47.060;15.064;2022-12-07T15:37:31;3.60;;;2.10;;
4794;SDS011;2411;47.060;15.064;2022-12-07T15:39:58;3.00;;;2.80;;
4794;SDS011;2411;47.060;15.064;2022-12-07T15:42:33;3.83;;;2.80;;
4794;SDS011;2411;47.060;15.064;2022-12-07T15:45:00;3.50;;;3.30;;
4794;SDS011;2411;47.060;15.064;2022-12-07T15:47:38;7.10;;;3.83;;
4794;SDS011;2411;47.060;15.064;2022-12-07T15:50:27;4.03;;;3.73;;
4794;SDS011;2411;47.060;15.064;2022-12-07T15:52:54;7.20;;;5.13;;
4794;SDS011;2411;47.060;15.064;2022-12-07T15:55:21;3.63;;;3.30;;
4794;SDS011;2411;47.060;15.064;2022-12-07T15:57:48;3.57;;;3.27;;
4794;SDS011;2411;47.060;15.064;2022-12-07T16:00:16;4.43;;;3.93;;
4794;SDS011;2411;47.060;15.064;2022-12-07T16:02:44;3.60;;;3.30;;
4794;SDS011;2411;47.060;15.064;2022-12-07T16:05:11;3.83;;;3.17;;
4794;SDS011;2411;47.060;15.064;2022-12-07T16:07:38;3.93;;;3.50;;
4794;SDS011;2411;47.060;15.064;2022-12-07T16:10:06;3.80;;;3.50;;
4794;SDS011;2411;47.060;15.064;2022-12-07T16:12:33;3.40;;;3.10;;
4794;SDS011;2411;47.060;15.064;2022-12-07T16:15:01;9.23;;;7.07;;
4794;SDS011;2411;47.060;15.064;2022-12-07T16:17:28;4.90;;;3.73;;
4794;SDS011;2411;47.060;15.064;2022-12-07T16:19:56;3.77;;;3.33;;
4794;SDS011;2411;47.060;15.064;2022-12-07T16:22:23;3.10;;;2.70;;
4794;SDS011;2411;47.060;15.064;2022-12-07T16:24:51;2.87;;;2.63;;
4794;SDS011;2411;47.060;15.064;2022-12-07T16:27:18;3.03;;;2.83;;
4794;SDS011;2411;47.060;15.064;2022-12-07T16:29:45;2.30;;;2.20;;
4794;SDS011;2411;47.060;15.064;2022-12-07T16:32:13;3.53;;;2.70;;
4794;SDS011;2411;47.060;15.064;2022-12-07T16:34:40;5.13;;;3.90;;
4794;SDS011;2411;47.060;15.064;2022-12-07T16:37:07;4.13;;;3.83;;
4794;SDS011;2411;47.060;15.064;2022-12-07T16:39:34;3.83;;;3.50;;
4794;SDS011;2411;47.060;15.064;2022-12-07T16:42:02;7.00;;;3.80;;
4794;SDS011;2411;47.060;15.064;2022-12-07T16:44:31;4.00;;;3.70;;
4794;SDS011;2411;47.060;15.064;2022-12-07T16:46:58;3.57;;;3.23;;
4794;SDS011;2411;47.060;15.064;2022-12-07T16:49:27;9.60;;;4.03;;
4794;SDS011;2411;47.060;15.064;2022-12-07T16:51:55;7.40;;;3.80;;
4794;SDS011;2411;47.060;15.064;2022-12-07T16:54:43;4.60;;;3.67;;
4794;SDS011;2411;47.060;15.064;2022-12-07T16:57:10;5.97;;;4.20;;
4794;SDS011;2411;47.060;15.064;2022-12-07T16:59:45;5.50;;;4.77;;
4794;SDS011;2411;47.060;15.064;2022-12-07T17:02:12;5.80;;;3.67;;
4794;SDS011;2411;47.060;15.064;2022-12-07T17:04:40;5.63;;;4.90;;
4794;SDS011;2411;47.060;15.064;2022-12-07T17:07:08;8.60;;;6.10;;
4794;SDS011;2411;47.060;15.064;2022-12-07T17:09:36;11.03;;;7.60;;
4794;SDS011;2411;47.060;15.064;2022-12-07T17:12:03;11.53;;;6.53;;
4794;SDS011;2411;47.060;15.064;2022-12-07T17:14:32;6.63;;;5.27;;
4794;SDS011;2411;47.060;15.064;2022-12-07T17:17:18;4.23;;;3.83;;
4794;SDS011;2411;47.060;15.064;2022-12-07T17:19:45;3.90;;;3.60;;
4794;SDS011;2411;47.060;15.064;2022-12-07T17:22:12;6.07;;;4.07;;
4794;SDS011;2411;47.060;15.064;2022-12-07T17:24:40;5.20;;;4.23;;
4794;SDS011;2411;47.060;15.064;2022-12-07T17:27:07;8.70;;;5.67;;
4794;SDS011;2411;47.060;15.064;2022-12-07T17:29:35;6.30;;;5.00;;
4794;SDS011;2411;47.060;15.064;2022-12-07T17:32:02;4.53;;;3.83;;
4794;SDS011;2411;47.060;15.064;2022-12-07T17:34:29;4.67;;;4.20;;
4794;SDS011;2411;47.060;15.064;2022-12-07T17:36:56;3.60;;;3.33;;
4794;SDS011;2411;47.060;15.064;2022-12-07T17:39:24;3.90;;;3.60;;
4794;SDS011;2411;47.060;15.064;2022-12-07T17:41:51;4.67;;;3.90;;